sensor_id;sensor_type;location;lat;lon;timestamp;temperature;humidity
79336;SHT35;69634;52.122;5.406;2024-02-21T00:02:06;10.23;80.77
79336;SHT35;69634;52.122;5.406;2024-02-21T00:04:36;10.24;80.49
79336;SHT35;69634;52.122;5.406;2024-02-21T00:07:07;10.21;80.89
79336;SHT35;69634;52.122;5.406;2024-02-21T00:09:38;10.16;80.79
79336;SHT35;69634;52.122;5.406;2024-02-21T00:12:11;10.17;80.63
79336;SHT35;69634;52.122;5.406;2024-02-21T00:14:41;10.14;80.50
79336;SHT35;69634;52.122;5.406;2024-02-21T00:17:11;10.12;80.78
79336;SHT35;69634;52.122;5.406;2024-02-21T00:19:41;10.07;81.17
79336;SHT35;69634;52.122;5.406;2024-02-21T00:22:12;10.09;80.96
79336;SHT35;69634;52.122;5.406;2024-02-21T00:24:42;10.07;80.98
79336;SHT35;69634;52.122;5.406;2024-02-21T00:27:15;10.07;81.28
79336;SHT35;69634;52.122;5.406;2024-02-21T00:29:45;10.09;81.25
79336;SHT35;69634;52.122;5.406;2024-02-21T00:32:15;10.10;80.90
79336;SHT35;69634;52.122;5.406;2024-02-21T00:34:45;10.08;81.18
79336;SHT35;69634;52.122;5.406;2024-02-21T00:37:16;10.08;81.20
79336;SHT35;69634;52.122;5.406;2024-02-21T00:39:46;10.13;80.67
79336;SHT35;69634;52.122;5.406;2024-02-21T00:42:19;10.15;80.98
79336;SHT35;69634;52.122;5.406;2024-02-21T00:44:49;10.15;81.02
79336;SHT35;69634;52.122;5.406;2024-02-21T00:47:19;10.14;81.29
79336;SHT35;69634;52.122;5.406;2024-02-21T00:49:49;10.12;81.26
79336;SHT35;69634;52.122;5.406;2024-02-21T00:52:20;10.13;81.17
79336;SHT35;69634;52.122;5.406;2024-02-21T00:54:50;10.15;80.99
79336;SHT35;69634;52.122;5.406;2024-02-21T00:57:23;10.15;80.98
79336;SHT35;69634;52.122;5.406;2024-02-21T00:59:54;10.12;80.87
79336;SHT35;69634;52.122;5.406;2024-02-21T01:02:24;10.15;81.10
79336;SHT35;69634;52.122;5.406;2024-02-21T01:04:54;10.19;80.91
79336;SHT35;69634;52.122;5.406;2024-02-21T01:07:24;10.21;80.56
79336;SHT35;69634;52.122;5.406;2024-02-21T01:09:54;10.25;80.85
79336;SHT35;69634;52.122;5.406;2024-02-21T01:12:27;10.24;80.59
79336;SHT35;69634;52.122;5.406;2024-02-21T01:14:57;10.27;80.59
79336;SHT35;69634;52.122;5.406;2024-02-21T01:17:28;10.26;80.36
79336;SHT35;69634;52.122;5.406;2024-02-21T01:19:58;10.26;80.63
79336;SHT35;69634;52.122;5.406;2024-02-21T01:22:28;10.30;80.34
79336;SHT35;69634;52.122;5.406;2024-02-21T01:24:59;10.26;80.61
79336;SHT35;69634;52.122;5.406;2024-02-21T01:27:31;10.30;80.51
79336;SHT35;69634;52.122;5.406;2024-02-21T01:30:01;10.32;80.45
79336;SHT35;69634;52.122;5.406;2024-02-21T01:32:33;10.26;80.79
79336;SHT35;69634;52.122;5.406;2024-02-21T01:35:04;10.27;80.58
79336;SHT35;69634;52.122;5.406;2024-02-21T01:37:34;10.27;80.24
79336;SHT35;69634;52.122;5.406;2024-02-21T01:40:06;10.25;80.52
79336;SHT35;69634;52.122;5.406;2024-02-21T01:42:40;10.27;80.32
79336;SHT35;69634;52.122;5.406;2024-02-21T01:45:11;10.29;80.40
79336;SHT35;69634;52.122;5.406;2024-02-21T01:47:44;10.30;80.24
79336;SHT35;69634;52.122;5.406;2024-02-21T01:50:17;10.27;80.51
79336;SHT35;69634;52.122;5.406;2024-02-21T01:52:50;10.31;80.32
79336;SHT35;69634;52.122;5.406;2024-02-21T01:55:20;10.23;80.10
79336;SHT35;69634;52.122;5.406;2024-02-21T01:57:53;10.26;80.76
79336;SHT35;69634;52.122;5.406;2024-02-21T02:00:24;10.28;80.68
79336;SHT35;69634;52.122;5.406;2024-02-21T02:02:55;10.29;80.53
79336;SHT35;69634;52.122;5.406;2024-02-21T02:05:26;10.29;80.57
79336;SHT35;69634;52.122;5.406;2024-02-21T02:07:57;10.29;80.53
79336;SHT35;69634;52.122;5.406;2024-02-21T02:10:27;10.28;80.45
79336;SHT35;69634;52.122;5.406;2024-02-21T02:13:00;10.29;80.41
79336;SHT35;69634;52.122;5.406;2024-02-21T02:15:37;10.29;80.42
79336;SHT35;69634;52.122;5.406;2024-02-21T02:18:08;10.32;80.34
79336;SHT35;69634;52.122;5.406;2024-02-21T02:20:39;10.28;80.30
79336;SHT35;69634;52.122;5.406;2024-02-21T02:23:11;10.28;80.49
79336;SHT35;69634;52.122;5.406;2024-02-21T02:25:45;10.29;80.40
79336;SHT35;69634;52.122;5.406;2024-02-21T02:28:19;10.31;80.41
79336;SHT35;69634;52.122;5.406;2024-02-21T02:30:49;10.30;80.16
79336;SHT35;69634;52.122;5.406;2024-02-21T02:33:20;10.27;80.09
79336;SHT35;69634;52.122;5.406;2024-02-21T02:35:50;10.30;80.26
79336;SHT35;69634;52.122;5.406;2024-02-21T02:38:20;10.29;80.23
79336;SHT35;69634;52.122;5.406;2024-02-21T02:40:53;10.29;80.15
79336;SHT35;69634;52.122;5.406;2024-02-21T02:43:23;10.25;80.05
79336;SHT35;69634;52.122;5.406;2024-02-21T02:45:53;10.29;80.15
79336;SHT35;69634;52.122;5.406;2024-02-21T02:48:23;10.28;80.22
79336;SHT35;69634;52.122;5.406;2024-02-21T02:50:54;10.28;80.15
79336;SHT35;69634;52.122;5.406;2024-02-21T02:53:24;10.25;80.37
79336;SHT35;69634;52.122;5.406;2024-02-21T02:55:57;10.27;80.31
79336;SHT35;69634;52.122;5.406;2024-02-21T02:58:28;10.29;80.45
79336;SHT35;69634;52.122;5.406;2024-02-21T03:00:58;10.26;80.13
79336;SHT35;69634;52.122;5.406;2024-02-21T03:03:29;10.27;80.39
79336;SHT35;69634;52.122;5.406;2024-02-21T03:06:00;10.21;80.27
79336;SHT35;69634;52.122;5.406;2024-02-21T03:08:30;10.23;80.66
79336;SHT35;69634;52.122;5.406;2024-02-21T03:11:03;10.19;80.39
79336;SHT35;69634;52.122;5.406;2024-02-21T03:13:34;10.20;80.62
79336;SHT35;69634;52.122;5.406;2024-02-21T03:16:04;10.21;80.59
79336;SHT35;69634;52.122;5.406;2024-02-21T03:18:35;10.20;80.59
79336;SHT35;69634;52.122;5.406;2024-02-21T03:21:05;10.21;80.65
79336;SHT35;69634;52.122;5.406;2024-02-21T03:23:35;10.17;80.64
79336;SHT35;69634;52.122;5.406;2024-02-21T03:26:08;10.15;80.58
79336;SHT35;69634;52.122;5.406;2024-02-21T03:28:38;10.15;80.73
79336;SHT35;69634;52.122;5.406;2024-02-21T03:31:10;10.15;80.84
79336;SHT35;69634;52.122;5.406;2024-02-21T03:33:42;10.13;80.86
79336;SHT35;69634;52.122;5.406;2024-02-21T03:36:13;10.16;80.82
79336;SHT35;69634;52.122;5.406;2024-02-21T03:38:44;10.16;80.81
79336;SHT35;69634;52.122;5.406;2024-02-21T03:41:18;10.19;80.96
79336;SHT35;69634;52.122;5.406;2024-02-21T03:43:49;10.19;81.01
79336;SHT35;69634;52.122;5.406;2024-02-21T03:46:19;10.14;80.63
79336;SHT35;69634;52.122;5.406;2024-02-21T03:48:50;10.16;80.95
79336;SHT35;69634;52.122;5.406;2024-02-21T03:51:20;10.16;80.60
79336;SHT35;69634;52.122;5.406;2024-02-21T03:53:50;10.12;81.02
79336;SHT35;69634;52.122;5.406;2024-02-21T03:56:23;10.14;80.90
79336;SHT35;69634;52.122;5.406;2024-02-21T03:58:53;10.13;81.05
79336;SHT35;69634;52.122;5.406;2024-02-21T04:01:24;10.12;80.59
79336;SHT35;69634;52.122;5.406;2024-02-21T04:03:54;10.11;80.87
79336;SHT35;69634;52.122;5.406;2024-02-21T04:06:24;10.10;80.69
79336;SHT35;69634;52.122;5.406;2024-02-21T04:08:54;10.09;80.60
79336;SHT35;69634;52.122;5.406;2024-02-21T04:11:28;10.10;80.79
79336;SHT35;69634;52.122;5.406;2024-02-21T04:13:58;10.09;80.61
79336;SHT35;69634;52.122;5.406;2024-02-21T04:16:28;10.06;80.50
79336;SHT35;69634;52.122;5.406;2024-02-21T04:18:58;10.04;81.01
79336;SHT35;69634;52.122;5.406;2024-02-21T04:21:29;10.04;81.02
79336;SHT35;69634;52.122;5.406;2024-02-21T04:23:59;10.01;81.16
79336;SHT35;69634;52.122;5.406;2024-02-21T04:26:36;10.00;80.98
79336;SHT35;69634;52.122;5.406;2024-02-21T04:29:06;9.98;81.14
79336;SHT35;69634;52.122;5.406;2024-02-21T04:31:37;9.98;81.09
79336;SHT35;69634;52.122;5.406;2024-02-21T04:34:07;9.97;80.91
79336;SHT35;69634;52.122;5.406;2024-02-21T04:36:37;9.96;81.24
79336;SHT35;69634;52.122;5.406;2024-02-21T04:39:07;9.96;81.03
79336;SHT35;69634;52.122;5.406;2024-02-21T04:41:41;9.98;81.21
79336;SHT35;69634;52.122;5.406;2024-02-21T04:44:11;9.93;81.13
79336;SHT35;69634;52.122;5.406;2024-02-21T04:46:42;9.97;81.03
79336;SHT35;69634;52.122;5.406;2024-02-21T04:49:12;9.98;81.04
79336;SHT35;69634;52.122;5.406;2024-02-21T04:51:43;9.94;80.97
79336;SHT35;69634;52.122;5.406;2024-02-21T04:54:13;9.92;81.25
79336;SHT35;69634;52.122;5.406;2024-02-21T04:56:45;9.93;80.94
79336;SHT35;69634;52.122;5.406;2024-02-21T04:59:19;9.96;80.99
79336;SHT35;69634;52.122;5.406;2024-02-21T05:01:49;9.92;81.21
79336;SHT35;69634;52.122;5.406;2024-02-21T05:04:20;9.95;81.23
79336;SHT35;69634;52.122;5.406;2024-02-21T05:06:50;9.92;81.03
79336;SHT35;69634;52.122;5.406;2024-02-21T05:09:20;9.92;81.22
79336;SHT35;69634;52.122;5.406;2024-02-21T05:11:53;9.94;80.97
79336;SHT35;69634;52.122;5.406;2024-02-21T05:14:24;9.98;81.04
79336;SHT35;69634;52.122;5.406;2024-02-21T05:16:54;9.97;80.97
79336;SHT35;69634;52.122;5.406;2024-02-21T05:19:24;9.97;81.07
79336;SHT35;69634;52.122;5.406;2024-02-21T05:21:55;9.95;81.07
79336;SHT35;69634;52.122;5.406;2024-02-21T05:24:25;9.96;80.98
79336;SHT35;69634;52.122;5.406;2024-02-21T05:26:59;9.97;80.74
79336;SHT35;69634;52.122;5.406;2024-02-21T05:29:32;9.96;80.81
79336;SHT35;69634;52.122;5.406;2024-02-21T05:32:03;10.00;80.68
79336;SHT35;69634;52.122;5.406;2024-02-21T05:34:33;10.00;80.81
79336;SHT35;69634;52.122;5.406;2024-02-21T05:37:04;9.95;80.62
79336;SHT35;69634;52.122;5.406;2024-02-21T05:39:34;9.95;80.86
79336;SHT35;69634;52.122;5.406;2024-02-21T05:42:07;9.93;80.87
79336;SHT35;69634;52.122;5.406;2024-02-21T05:44:37;9.93;80.81
79336;SHT35;69634;52.122;5.406;2024-02-21T05:47:07;9.91;81.11
79336;SHT35;69634;52.122;5.406;2024-02-21T05:49:40;9.92;81.03
79336;SHT35;69634;52.122;5.406;2024-02-21T05:52:11;9.93;80.71
79336;SHT35;69634;52.122;5.406;2024-02-21T05:54:41;9.91;80.93
79336;SHT35;69634;52.122;5.406;2024-02-21T05:57:16;9.88;81.19
79336;SHT35;69634;52.122;5.406;2024-02-21T05:59:46;9.94;80.98
79336;SHT35;69634;52.122;5.406;2024-02-21T06:02:18;9.92;80.93
79336;SHT35;69634;52.122;5.406;2024-02-21T06:04:48;9.92;80.76
79336;SHT35;69634;52.122;5.406;2024-02-21T06:07:19;9.86;81.14
79336;SHT35;69634;52.122;5.406;2024-02-21T06:09:49;9.88;81.12
79336;SHT35;69634;52.122;5.406;2024-02-21T06:12:22;9.91;81.07
79336;SHT35;69634;52.122;5.406;2024-02-21T06:14:52;9.89;81.22
79336;SHT35;69634;52.122;5.406;2024-02-21T06:17:22;9.91;81.32
79336;SHT35;69634;52.122;5.406;2024-02-21T06:19:52;9.87;81.39
79336;SHT35;69634;52.122;5.406;2024-02-21T06:22:23;9.89;81.27
79336;SHT35;69634;52.122;5.406;2024-02-21T06:24:53;9.87;81.29
79336;SHT35;69634;52.122;5.406;2024-02-21T06:27:26;9.91;81.40
79336;SHT35;69634;52.122;5.406;2024-02-21T06:29:56;9.91;81.29
79336;SHT35;69634;52.122;5.406;2024-02-21T06:32:27;9.92;81.26
79336;SHT35;69634;52.122;5.406;2024-02-21T06:34:57;9.84;81.44
79336;SHT35;69634;52.122;5.406;2024-02-21T06:37:32;9.86;81.30
79336;SHT35;69634;52.122;5.406;2024-02-21T06:40:03;9.82;81.24
79336;SHT35;69634;52.122;5.406;2024-02-21T06:42:36;9.84;81.51
79336;SHT35;69634;52.122;5.406;2024-02-21T06:45:06;9.84;81.31
79336;SHT35;69634;52.122;5.406;2024-02-21T06:47:37;9.81;81.55
79336;SHT35;69634;52.122;5.406;2024-02-21T06:50:08;9.81;81.42
79336;SHT35;69634;52.122;5.406;2024-02-21T06:52:39;9.79;81.42
79336;SHT35;69634;52.122;5.406;2024-02-21T06:55:09;9.79;81.29
79336;SHT35;69634;52.122;5.406;2024-02-21T06:57:42;9.79;81.42
79336;SHT35;69634;52.122;5.406;2024-02-21T07:00:14;9.81;81.27
79336;SHT35;69634;52.122;5.406;2024-02-21T07:02:48;9.82;81.32
79336;SHT35;69634;52.122;5.406;2024-02-21T07:05:18;9.78;81.44
79336;SHT35;69634;52.122;5.406;2024-02-21T07:07:49;9.75;81.18
79336;SHT35;69634;52.122;5.406;2024-02-21T07:10:20;9.75;81.39
79336;SHT35;69634;52.122;5.406;2024-02-21T07:12:53;9.74;81.60
79336;SHT35;69634;52.122;5.406;2024-02-21T07:15:23;9.73;81.52
79336;SHT35;69634;52.122;5.406;2024-02-21T07:17:55;9.74;81.55
79336;SHT35;69634;52.122;5.406;2024-02-21T07:20:26;9.75;81.30
79336;SHT35;69634;52.122;5.406;2024-02-21T07:22:57;9.75;81.45
79336;SHT35;69634;52.122;5.406;2024-02-21T07:25:27;9.76;81.17
79336;SHT35;69634;52.122;5.406;2024-02-21T07:28:00;9.76;81.37
79336;SHT35;69634;52.122;5.406;2024-02-21T07:30:30;9.77;81.10
79336;SHT35;69634;52.122;5.406;2024-02-21T07:33:00;9.75;81.37
79336;SHT35;69634;52.122;5.406;2024-02-21T07:35:31;9.79;81.30
79336;SHT35;69634;52.122;5.406;2024-02-21T07:38:01;9.77;80.99
79336;SHT35;69634;52.122;5.406;2024-02-21T07:40:32;9.76;81.08
79336;SHT35;69634;52.122;5.406;2024-02-21T07:43:05;9.77;81.10
79336;SHT35;69634;52.122;5.406;2024-02-21T07:45:35;9.83;80.87
79336;SHT35;69634;52.122;5.406;2024-02-21T07:48:07;9.80;80.79
79336;SHT35;69634;52.122;5.406;2024-02-21T07:50:37;9.86;80.57
79336;SHT35;69634;52.122;5.406;2024-02-21T07:53:07;9.88;80.62
79336;SHT35;69634;52.122;5.406;2024-02-21T07:55:38;9.93;80.23
79336;SHT35;69634;52.122;5.406;2024-02-21T07:58:11;9.91;80.26
79336;SHT35;69634;52.122;5.406;2024-02-21T08:00:41;9.94;80.08
79336;SHT35;69634;52.122;5.406;2024-02-21T08:03:11;9.94;80.34
79336;SHT35;69634;52.122;5.406;2024-02-21T08:05:42;9.99;80.15
79336;SHT35;69634;52.122;5.406;2024-02-21T08:08:12;9.98;80.06
79336;SHT35;69634;52.122;5.406;2024-02-21T08:10:47;10.03;79.42
79336;SHT35;69634;52.122;5.406;2024-02-21T08:13:20;10.06;79.69
79336;SHT35;69634;52.122;5.406;2024-02-21T08:15:51;10.06;79.40
79336;SHT35;69634;52.122;5.406;2024-02-21T08:18:21;10.13;79.48
79336;SHT35;69634;52.122;5.406;2024-02-21T08:20:51;10.12;79.30
79336;SHT35;69634;52.122;5.406;2024-02-21T08:23:23;10.19;79.20
79336;SHT35;69634;52.122;5.406;2024-02-21T08:25:53;10.26;78.70
79336;SHT35;69634;52.122;5.406;2024-02-21T08:28:26;10.24;78.93
79336;SHT35;69634;52.122;5.406;2024-02-21T08:30:58;10.32;79.00
79336;SHT35;69634;52.122;5.406;2024-02-21T08:33:28;10.36;78.45
79336;SHT35;69634;52.122;5.406;2024-02-21T08:35:58;10.35;78.17
79336;SHT35;69634;52.122;5.406;2024-02-21T08:38:28;10.43;78.33
79336;SHT35;69634;52.122;5.406;2024-02-21T08:40:59;10.40;78.12
79336;SHT35;69634;52.122;5.406;2024-02-21T08:43:31;10.42;77.89
79336;SHT35;69634;52.122;5.406;2024-02-21T08:46:03;10.48;78.20
79336;SHT35;69634;52.122;5.406;2024-02-21T08:48:33;10.51;77.82
79336;SHT35;69634;52.122;5.406;2024-02-21T08:51:04;10.47;77.92
79336;SHT35;69634;52.122;5.406;2024-02-21T08:53:35;10.48;77.93
79336;SHT35;69634;52.122;5.406;2024-02-21T08:56:06;10.50;77.80
79336;SHT35;69634;52.122;5.406;2024-02-21T08:58:40;10.58;77.64
79336;SHT35;69634;52.122;5.406;2024-02-21T09:01:12;10.65;77.57
79336;SHT35;69634;52.122;5.406;2024-02-21T09:03:42;10.65;77.08
79336;SHT35;69634;52.122;5.406;2024-02-21T09:06:13;10.67;77.04
79336;SHT35;69634;52.122;5.406;2024-02-21T09:08:43;10.70;77.04
79336;SHT35;69634;52.122;5.406;2024-02-21T09:11:14;10.75;76.76
79336;SHT35;69634;52.122;5.406;2024-02-21T09:13:47;10.75;76.38
79336;SHT35;69634;52.122;5.406;2024-02-21T09:16:17;10.78;76.14
79336;SHT35;69634;52.122;5.406;2024-02-21T09:18:47;10.83;76.04
79336;SHT35;69634;52.122;5.406;2024-02-21T09:21:18;10.83;76.04
79336;SHT35;69634;52.122;5.406;2024-02-21T09:23:48;10.86;75.74
79336;SHT35;69634;52.122;5.406;2024-02-21T09:26:19;10.92;75.29
79336;SHT35;69634;52.122;5.406;2024-02-21T09:28:49;10.88;75.53
79336;SHT35;69634;52.122;5.406;2024-02-21T09:31:20;10.88;75.05
79336;SHT35;69634;52.122;5.406;2024-02-21T09:33:50;10.85;75.09
79336;SHT35;69634;52.122;5.406;2024-02-21T09:36:20;10.88;75.97
79336;SHT35;69634;52.122;5.406;2024-02-21T09:38:51;10.91;75.58
79336;SHT35;69634;52.122;5.406;2024-02-21T09:41:26;10.95;75.46
79336;SHT35;69634;52.122;5.406;2024-02-21T09:43:59;11.03;75.10
79336;SHT35;69634;52.122;5.406;2024-02-21T09:46:51;11.07;74.89
79336;SHT35;69634;52.122;5.406;2024-02-21T09:49:30;11.21;74.02
79336;SHT35;69634;52.122;5.406;2024-02-21T09:52:04;11.17;73.72
79336;SHT35;69634;52.122;5.406;2024-02-21T09:54:35;11.22;74.10
79336;SHT35;69634;52.122;5.406;2024-02-21T09:57:06;11.17;73.51
79336;SHT35;69634;52.122;5.406;2024-02-21T09:59:39;11.17;73.71
79336;SHT35;69634;52.122;5.406;2024-02-21T10:02:09;11.24;73.19
79336;SHT35;69634;52.122;5.406;2024-02-21T10:04:40;11.26;73.71
79336;SHT35;69634;52.122;5.406;2024-02-21T10:07:11;11.28;73.33
79336;SHT35;69634;52.122;5.406;2024-02-21T10:09:41;11.36;73.43
79336;SHT35;69634;52.122;5.406;2024-02-21T10:12:15;11.38;73.11
79336;SHT35;69634;52.122;5.406;2024-02-21T10:15:00;11.40;72.65
79336;SHT35;69634;52.122;5.406;2024-02-21T10:17:31;11.47;72.30
79336;SHT35;69634;52.122;5.406;2024-02-21T10:20:07;11.47;72.09
79336;SHT35;69634;52.122;5.406;2024-02-21T10:22:38;11.45;71.85
79336;SHT35;69634;52.122;5.406;2024-02-21T10:25:10;11.48;71.92
79336;SHT35;69634;52.122;5.406;2024-02-21T10:27:41;11.55;72.50
79336;SHT35;69634;52.122;5.406;2024-02-21T10:30:15;11.62;72.11
79336;SHT35;69634;52.122;5.406;2024-02-21T10:32:50;11.68;71.60
79336;SHT35;69634;52.122;5.406;2024-02-21T10:35:26;11.73;71.32
79336;SHT35;69634;52.122;5.406;2024-02-21T10:37:58;11.83;71.21
79336;SHT35;69634;52.122;5.406;2024-02-21T10:40:30;11.87;71.24
79336;SHT35;69634;52.122;5.406;2024-02-21T10:43:02;11.95;71.53
79336;SHT35;69634;52.122;5.406;2024-02-21T10:45:36;11.95;70.73
79336;SHT35;69634;52.122;5.406;2024-02-21T10:48:12;11.92;70.66
79336;SHT35;69634;52.122;5.406;2024-02-21T10:50:56;11.89;70.97
79336;SHT35;69634;52.122;5.406;2024-02-21T10:53:44;11.90;70.40
79336;SHT35;69634;52.122;5.406;2024-02-21T10:56:22;11.90;70.95
79336;SHT35;69634;52.122;5.406;2024-02-21T10:58:53;11.86;71.40
79336;SHT35;69634;52.122;5.406;2024-02-21T11:01:28;11.85;71.31
79336;SHT35;69634;52.122;5.406;2024-02-21T11:04:02;11.91;71.37
79336;SHT35;69634;52.122;5.406;2024-02-21T11:06:36;11.87;71.52
79336;SHT35;69634;52.122;5.406;2024-02-21T11:09:08;11.95;71.06
79336;SHT35;69634;52.122;5.406;2024-02-21T11:11:40;11.99;71.83
79336;SHT35;69634;52.122;5.406;2024-02-21T11:14:17;11.94;71.39
79336;SHT35;69634;52.122;5.406;2024-02-21T11:16:50;11.94;71.62
79336;SHT35;69634;52.122;5.406;2024-02-21T11:19:22;11.81;71.96
79336;SHT35;69634;52.122;5.406;2024-02-21T11:21:54;11.66;72.11
79336;SHT35;69634;52.122;5.406;2024-02-21T11:24:29;11.62;72.72
79336;SHT35;69634;52.122;5.406;2024-02-21T11:27:08;11.50;72.64
79336;SHT35;69634;52.122;5.406;2024-02-21T11:29:43;11.34;72.99
79336;SHT35;69634;52.122;5.406;2024-02-21T11:32:18;11.34;73.71
79336;SHT35;69634;52.122;5.406;2024-02-21T11:34:55;11.26;73.55
79336;SHT35;69634;52.122;5.406;2024-02-21T11:37:31;11.24;73.98
79336;SHT35;69634;52.122;5.406;2024-02-21T11:40:05;11.13;73.99
79336;SHT35;69634;52.122;5.406;2024-02-21T11:42:39;11.07;74.44
79336;SHT35;69634;52.122;5.406;2024-02-21T11:45:09;11.02;75.09
79336;SHT35;69634;52.122;5.406;2024-02-21T11:47:42;10.96;74.96
79336;SHT35;69634;52.122;5.406;2024-02-21T11:50:14;10.98;75.07
79336;SHT35;69634;52.122;5.406;2024-02-21T11:52:48;10.96;74.79
79336;SHT35;69634;52.122;5.406;2024-02-21T11:55:18;10.98;75.12
79336;SHT35;69634;52.122;5.406;2024-02-21T11:57:49;10.99;75.06
79336;SHT35;69634;52.122;5.406;2024-02-21T12:00:20;11.06;74.90
79336;SHT35;69634;52.122;5.406;2024-02-21T12:02:54;11.16;74.75
79336;SHT35;69634;52.122;5.406;2024-02-21T12:05:30;11.34;74.15
79336;SHT35;69634;52.122;5.406;2024-02-21T12:08:01;11.49;73.67
79336;SHT35;69634;52.122;5.406;2024-02-21T12:10:31;11.66;73.47
79336;SHT35;69634;52.122;5.406;2024-02-21T12:13:06;11.86;72.69
79336;SHT35;69634;52.122;5.406;2024-02-21T12:15:39;12.06;71.52
79336;SHT35;69634;52.122;5.406;2024-02-21T12:18:12;12.19;70.79
79336;SHT35;69634;52.122;5.406;2024-02-21T12:20:42;12.32;70.09
79336;SHT35;69634;52.122;5.406;2024-02-21T12:23:13;12.35;69.43
79336;SHT35;69634;52.122;5.406;2024-02-21T12:25:44;12.43;69.37
79336;SHT35;69634;52.122;5.406;2024-02-21T12:28:14;12.54;69.23
79336;SHT35;69634;52.122;5.406;2024-02-21T12:30:44;12.58;69.10
79336;SHT35;69634;52.122;5.406;2024-02-21T12:33:17;12.61;68.57
79336;SHT35;69634;52.122;5.406;2024-02-21T12:35:48;12.57;69.14
79336;SHT35;69634;52.122;5.406;2024-02-21T12:38:18;12.59;68.34
79336;SHT35;69634;52.122;5.406;2024-02-21T12:40:48;12.47;67.86
79336;SHT35;69634;52.122;5.406;2024-02-21T12:43:19;12.47;68.02
79336;SHT35;69634;52.122;5.406;2024-02-21T12:45:49;12.47;68.57
79336;SHT35;69634;52.122;5.406;2024-02-21T12:48:22;12.41;68.96
79336;SHT35;69634;52.122;5.406;2024-02-21T12:50:52;12.44;68.85
79336;SHT35;69634;52.122;5.406;2024-02-21T12:53:23;12.49;68.69
79336;SHT35;69634;52.122;5.406;2024-02-21T12:56:00;12.52;68.57
79336;SHT35;69634;52.122;5.406;2024-02-21T12:58:32;12.51;68.06
79336;SHT35;69634;52.122;5.406;2024-02-21T13:01:02;12.53;68.34
79336;SHT35;69634;52.122;5.406;2024-02-21T13:03:35;12.56;69.15
79336;SHT35;69634;52.122;5.406;2024-02-21T13:06:06;12.61;68.65
79336;SHT35;69634;52.122;5.406;2024-02-21T13:08:38;12.61;68.61
79336;SHT35;69634;52.122;5.406;2024-02-21T13:11:08;12.63;68.72
79336;SHT35;69634;52.122;5.406;2024-02-21T13:13:38;12.62;68.39
79336;SHT35;69634;52.122;5.406;2024-02-21T13:16:12;12.67;68.21
79336;SHT35;69634;52.122;5.406;2024-02-21T13:18:44;12.60;67.80
79336;SHT35;69634;52.122;5.406;2024-02-21T13:21:15;12.62;68.05
79336;SHT35;69634;52.122;5.406;2024-02-21T13:23:45;12.60;67.97
79336;SHT35;69634;52.122;5.406;2024-02-21T13:26:16;12.59;68.15
79336;SHT35;69634;52.122;5.406;2024-02-21T13:28:47;12.52;68.23
79336;SHT35;69634;52.122;5.406;2024-02-21T13:31:18;12.46;68.12
79336;SHT35;69634;52.122;5.406;2024-02-21T13:33:50;12.33;67.99
79336;SHT35;69634;52.122;5.406;2024-02-21T13:36:21;12.30;68.01
79336;SHT35;69634;52.122;5.406;2024-02-21T13:38:51;12.21;68.22
79336;SHT35;69634;52.122;5.406;2024-02-21T13:41:22;12.16;68.98
79336;SHT35;69634;52.122;5.406;2024-02-21T13:43:52;12.13;68.88
79336;SHT35;69634;52.122;5.406;2024-02-21T13:46:22;12.07;69.10
79336;SHT35;69634;52.122;5.406;2024-02-21T13:49:04;12.10;69.38
79336;SHT35;69634;52.122;5.406;2024-02-21T13:51:37;12.10;69.31
79336;SHT35;69634;52.122;5.406;2024-02-21T13:54:08;12.08;69.61
79336;SHT35;69634;52.122;5.406;2024-02-21T13:56:39;11.99;69.35
79336;SHT35;69634;52.122;5.406;2024-02-21T13:59:09;12.04;69.49
79336;SHT35;69634;52.122;5.406;2024-02-21T14:01:39;11.97;69.43
79336;SHT35;69634;52.122;5.406;2024-02-21T14:04:12;11.93;69.16
79336;SHT35;69634;52.122;5.406;2024-02-21T14:06:43;11.95;69.21
79336;SHT35;69634;52.122;5.406;2024-02-21T14:09:13;11.90;68.78
79336;SHT35;69634;52.122;5.406;2024-02-21T14:11:44;11.93;68.90
79336;SHT35;69634;52.122;5.406;2024-02-21T14:14:14;11.88;69.20
79336;SHT35;69634;52.122;5.406;2024-02-21T14:16:45;11.82;69.52
79336;SHT35;69634;52.122;5.406;2024-02-21T14:19:18;11.85;69.77
79336;SHT35;69634;52.122;5.406;2024-02-21T14:21:48;11.83;69.70
79336;SHT35;69634;52.122;5.406;2024-02-21T14:24:19;11.84;69.19
79336;SHT35;69634;52.122;5.406;2024-02-21T14:26:49;11.81;69.31
79336;SHT35;69634;52.122;5.406;2024-02-21T14:29:20;11.84;68.95
79336;SHT35;69634;52.122;5.406;2024-02-21T14:31:50;11.83;69.04
79336;SHT35;69634;52.122;5.406;2024-02-21T14:34:23;11.84;68.93
79336;SHT35;69634;52.122;5.406;2024-02-21T14:36:54;11.85;68.89
79336;SHT35;69634;52.122;5.406;2024-02-21T14:39:24;11.82;68.86
79336;SHT35;69634;52.122;5.406;2024-02-21T14:41:54;11.84;68.53
79336;SHT35;69634;52.122;5.406;2024-02-21T14:44:24;11.84;69.40
79336;SHT35;69634;52.122;5.406;2024-02-21T14:46:55;11.84;69.48
79336;SHT35;69634;52.122;5.406;2024-02-21T14:49:28;11.82;70.26
79336;SHT35;69634;52.122;5.406;2024-02-21T14:51:58;11.86;70.22
79336;SHT35;69634;52.122;5.406;2024-02-21T14:54:28;11.82;70.64
79336;SHT35;69634;52.122;5.406;2024-02-21T14:56:58;11.77;70.56
79336;SHT35;69634;52.122;5.406;2024-02-21T14:59:29;11.70;70.97
79336;SHT35;69634;52.122;5.406;2024-02-21T15:02:01;11.62;70.96
79336;SHT35;69634;52.122;5.406;2024-02-21T15:04:34;11.55;71.42
79336;SHT35;69634;52.122;5.406;2024-02-21T15:07:04;11.52;71.92
79336;SHT35;69634;52.122;5.406;2024-02-21T15:09:35;11.39;73.51
79336;SHT35;69634;52.122;5.406;2024-02-21T15:12:06;11.32;73.78
79336;SHT35;69634;52.122;5.406;2024-02-21T15:14:36;11.27;74.76
79336;SHT35;69634;52.122;5.406;2024-02-21T15:17:06;11.20;75.30
79336;SHT35;69634;52.122;5.406;2024-02-21T15:19:39;11.06;75.77
79336;SHT35;69634;52.122;5.406;2024-02-21T15:22:11;11.07;76.76
79336;SHT35;69634;52.122;5.406;2024-02-21T15:24:42;10.92;76.42
79336;SHT35;69634;52.122;5.406;2024-02-21T15:27:15;10.81;77.35
79336;SHT35;69634;52.122;5.406;2024-02-21T15:29:45;10.77;78.15
79336;SHT35;69634;52.122;5.406;2024-02-21T15:32:15;10.68;78.40
79336;SHT35;69634;52.122;5.406;2024-02-21T15:34:48;10.54;79.55
79336;SHT35;69634;52.122;5.406;2024-02-21T15:37:19;10.46;80.36
79336;SHT35;69634;52.122;5.406;2024-02-21T15:39:49;10.30;80.47
79336;SHT35;69634;52.122;5.406;2024-02-21T15:42:19;10.21;81.17
79336;SHT35;69634;52.122;5.406;2024-02-21T15:44:49;10.13;81.70
79336;SHT35;69634;52.122;5.406;2024-02-21T15:47:20;10.05;82.52
79336;SHT35;69634;52.122;5.406;2024-02-21T15:49:53;9.98;82.90
79336;SHT35;69634;52.122;5.406;2024-02-21T15:52:23;9.92;83.82
79336;SHT35;69634;52.122;5.406;2024-02-21T15:54:53;9.87;83.85
79336;SHT35;69634;52.122;5.406;2024-02-21T15:57:24;9.84;84.23
79336;SHT35;69634;52.122;5.406;2024-02-21T15:59:54;9.78;84.52
79336;SHT35;69634;52.122;5.406;2024-02-21T16:02:24;9.73;84.51